• Join FlightAware (Why Join?)
  • Login
  • US Flag 
08:01PM EST


 

Airport Tracker/Info


-or-


 

Live Flight TrackerFlight Track Log ✈ SWA2005 ✈ 11-Jul-2013 ✈ KSJC - KPHX

Flight Track Log - Related Links

Times and Time Zones

All times are in EDT time to prevent confusion due to time zone crossing. See the SWA2005 flight status page for this flight to view local times or setup timezone preferences in your user account.

Time Position Orientation Groundspeed Altitude Reporting Facility
EDT Latitude Longitude Course Direction KTS MPH feet Rate Location/Type
12:18AM 37.3833 -121.9500 22° Northeast 168 193 1,700  Level Northern Cal TRACON
12:19AM 37.4167 -121.9333 22° Northeast 251 289 4,500 2,460 Climbing Northern Cal TRACON
12:20AM 37.3833 -121.8667 122° Southeast 232 267 6,400 2,400 Climbing Northern Cal TRACON
12:21AM 37.3542 -121.8372 141° Southeast 235 270 8,500 2,880 Climbing Oakland Center
12:22AM 37.2939 -121.7717 139° Southeast 284 327 11,200 3,000 Climbing Oakland Center
12:23AM 37.2181 -121.6828 137° Southeast 360 414 14,700 3,480 Climbing Oakland Center
12:24AM 37.1356 -121.5942 139° Southeast 388 447 18,300 3,300 Climbing Oakland Center
12:25AM 37.0475 -121.4936 138° Southeast 415 478 21,500 3,000 Climbing Oakland Center
12:26AM 36.9572 -121.3936 138° Southeast 431 496 24,500 2,700 Climbing Oakland Center
12:27AM 36.8633 -121.2903 139° Southeast 448 516 27,100 1,680 Climbing Oakland Center
12:28AM 36.7553 -121.1719 139° Southeast 461 531 28,000 420 Climbing Oakland Center
12:29AM 36.6681 -121.0528 132° Southeast 464 534 28,000  Level Oakland Center
12:30AM 36.5828 -120.9328 131° Southeast 463 533 28,000  Level Oakland Center
12:31AM 36.4972 -120.8117 131° Southeast 465 535 28,000 720 Level Oakland Center
12:32AM 36.4128 -120.6925 131° Southeast 460 529 29,500 2,580 Climbing Oakland Center
12:33AM 36.3319 -120.5786 131° Southeast 442 509 33,300 2,700 Climbing Oakland Center
12:34AM 36.2544 -120.4728 132° Southeast 418 481 35,000 780 Climbing Oakland Center
12:35AM 36.1586 -120.3400 132° Southeast 427 491 35,000 660 Level Oakland Center
12:36AM 36.0778 -120.2292 132° Southeast 431 496 36,400 960 Climbing Oakland Center
12:37AM 35.9978 -120.1186 132° Southeast 429 494 37,000 240 Climbing Oakland Center
12:38AM 35.9183 -120.0092 132° Southeast 426 490 37,000  Level Oakland Center
12:39AM 35.8375 -119.8997 132° Southeast 428 493 37,000  Level Oakland Center
12:40AM 35.7622 -119.7858 129° Southeast 427 491 37,000  Level Oakland Center
12:41AM 35.7072 -119.6481 116° Southeast 445 512 37,000  Level Oakland Center
12:42AM 35.6531 -119.5108 116° Southeast 445 512 37,000  Level Oakland Center
12:43AM 35.5969 -119.3767 117° Southeast 442 509 37,000  Level Oakland Center
12:44AM 35.5419 -119.2428 117° Southeast 439 505 37,000  Level Oakland Center
12:45AM 35.4900 -119.1092 115° Southeast 435 501 37,000  Level Oakland Center
12:46AM 35.4339 -118.9764 117° Southeast 437 503 37,000  Level Oakland Center
12:47AM 35.3803 -118.8414 116° Southeast 439 505 37,000  Level Oakland Center
12:48AM 35.3250 -118.7083 117° Southeast 437 503 37,000  Level Oakland Center
12:49AM 35.2581 -118.5467 117° Southeast 443 510 37,000  Level Oakland Center
12:50AM 35.2039 -118.4125 116° Southeast 440 506 37,000  Level Oakland Center
12:51AM 35.1489 -118.2775 116° Southeast 441 507 37,000  Level Oakland Center
12:52AM 35.0911 -118.1472 118° Southeast 443 510 37,000  Level Los Angeles Center
12:53AM 35.0250 -117.9908 117° Southeast 437 503 37,000  Level Los Angeles Center
12:54AM 34.9692 -117.8617 118° Southeast 436 502 37,000  Level Los Angeles Center
12:55AM 34.9133 -117.7336 118° Southeast 441 507 37,000  Level Los Angeles Center
12:56AM 34.8583 -117.6044 117° Southeast 444 511 37,000  Level Los Angeles Center
12:57AM 34.8025 -117.4756 118° Southeast 451 519 37,000  Level Los Angeles Center
12:58AM 34.7489 -117.3475 117° Southeast 446 513 37,000  Level Los Angeles Center
12:59AM 34.6839 -117.1942 117° Southeast 437 503 37,000  Level Los Angeles Center
01:00AM 34.6392 -117.0917 118° Southeast 442 509 37,000  Level Los Angeles Center
01:01AM 34.5706 -116.9403 119° Southeast 435 501 37,000  Level Los Angeles Center
01:02AM 34.5178 -116.8072 116° Southeast 445 512 37,000  Level Los Angeles Center
01:04AM 34.4606 -116.6808 119° Southeast 432 497 37,000  Level Los Angeles Center
01:05AM 34.3947 -116.5289 118° Southeast 432 497 37,000  Level Los Angeles Center
01:06AM 34.3419 -116.4017 117° Southeast 426 490 37,000  Level Los Angeles Center
01:07AM 34.2739 -116.2533 119° Southeast 424 488 37,000  Level Los Angeles Center
01:08AM 34.2186 -116.1272 118° Southeast 425 489 37,000  Level Los Angeles Center
01:09AM 34.1617 -116.0025 119° Southeast 425 489 37,000  Level Los Angeles Center
01:10AM 34.1106 -115.8889 118° Southeast 423 487 37,000  Level Los Angeles Center
01:11AM 34.0439 -115.7394 118° Southeast 420 483 37,000  Level Los Angeles Center
01:12AM 33.9878 -115.6164 119° Southeast 419 482 37,000  Level Los Angeles Center
01:13AM 33.9322 -115.4944 119° Southeast 415 478 37,000  Level Los Angeles Center
01:14AM 33.8764 -115.3717 119° Southeast 417 480 37,000  Level Los Angeles Center
01:15AM 33.8200 -115.2494 119° Southeast 418 481 37,000  Level Los Angeles Center
01:16AM 33.7650 -115.1281 119° Southeast 414 476 37,000  Level Los Angeles Center
01:17AM 33.7083 -115.0072 119° Southeast 413 475 37,000 -60 Level Los Angeles Center
01:18AM 33.6544 -114.8875 118° Southeast 409 471 36,900 -600 Descending Los Angeles Center
01:19AM 33.5994 -114.7661 119° Southeast 411 473 35,900 -1,080 Descending Los Angeles Center
01:20AM 33.5625 -114.5981 105° East 433 498 34,700 -1,620 Descending Los Angeles Center
01:21AM 33.5339 -114.4567 104° East 437 503 32,600 -2,580 Descending Los Angeles Center
01:22AM 33.5069 -114.3153 103° East 437 503 29,500 -2,940 Descending Los Angeles Center
01:23AM 33.4794 -114.1753 103° East 434 499 26,600 -2,280 Descending Los Angeles Center
01:24AM 33.4522 -114.0411 104° East 422 486 24,900 -840 Descending Los Angeles Center
01:25AM 33.4297 -113.9097 102° East 408 470 25,000  Climbing Los Angeles Center
01:26AM 33.4131 -113.7753 98° East 408 470 25,000  Level Los Angeles Center
01:27AM 33.3953 -113.6417 99° East 409 471 25,000  Level Los Angeles Center
01:28AM 33.3772 -113.5081 99° East 408 470 25,000  Level Los Angeles Center
01:29AM 33.3578 -113.3725 100° East 411 473 25,000 -1,200 Level Los Angeles Center
01:30AM 33.3378 -113.2158 99° East 416 479 22,600 -2,220 Descending Los Angeles Center
01:31AM 33.3231 -113.1117 100° East 406 467 20,600 -2,520 Descending Los Angeles Center
01:32AM 33.3000 -113.0167 106° East 380 437 18,700 -3,000 Descending Phoenix TRACON
01:32AM 33.3000 -112.9500 90° East 375 432 17,400 -1,800 Descending Phoenix TRACON
01:33AM 33.2833 -112.8333 100° East 352 405 16,000 -720 Descending Phoenix TRACON
01:34AM 33.2833 -112.7333 90° East 327 376 16,000 -360 Level Phoenix TRACON
01:35AM 33.2833 -112.6167 90° East 315 362 15,300 -1,260 Descending Phoenix TRACON
01:37AM 33.2833 -112.5000 90° East 308 354 13,300 -1,740 Descending Phoenix TRACON
01:38AM 33.2833 -112.4000 90° East 306 352 11,600 -1,140 Descending Phoenix TRACON
01:39AM 33.3000 -112.2833 80° East 302 348 11,000 -1,020 Descending Phoenix TRACON
01:40AM 33.3039 -112.1939 87° East 300 345 9,500 -960 Descending Albuquerque Center
01:41AM 33.3103 -112.1042 85° East 275 316 9,000 -780 Descending Albuquerque Center
01:42AM 33.3286 -112.0261 74° East 249 287 8,000 -1,200 Descending Albuquerque Center
01:43AM 33.3469 -111.9475 74° East 247 284 6,700 -1,320 Descending Albuquerque Center
01:44AM 33.3464 -111.8697 90° East 234 269 5,400 -1,380 Descending Albuquerque Center
01:45AM 33.3983 -111.8572 11° North 201 231 3,900 -1,320 Descending Albuquerque Center
01:45AM 33.4333 -111.8833 328° Northwest 166 191 3,200 -1,020 Descending Phoenix TRACON
01:46AM 33.4333 -111.9167 270° West 141 162 2,400 -900 Descending Phoenix TRACON
01:47AM 33.4333 -111.9667 270° West 127 146 1,500 -840 Descending Phoenix TRACON